Time;durP1;ratioP1;P1;durP2;ratioP2;P2;SDS_P1;SDS_P2;PMS_P1;PMS_P2;Temp;Humidity;BMP_temperature;BMP_pressure;BME280_temperature;BME280_humidity;BME280_pressure;Samples;Min_cycle;Max_cycle;Signal;HPM_P1;HPM_P2
2023/09/10 00:00:46;;;;;;;8.85;3.00;;;;;;;;;;4945850;28;20043;-69
2023/09/10 00:03:13;;;;;;;9.75;2.83;;;;;;;;;;4941344;28;20041;-69
2023/09/10 00:05:39;;;;;;;7.85;2.80;;;;;;;;;;4946886;28;20058;-71
2023/09/10 00:08:06;;;;;;;7.70;2.75;;;;;;;;;;4942590;28;20031;-71
2023/09/10 00:10:32;;;;;;;7.20;2.88;;;;;;;;;;4941625;28;20054;-69
2023/09/10 00:12:58;;;;;;;6.90;2.72;;;;;;;;;;4944194;28;20362;-69
2023/09/10 00:15:24;;;;;;;7.50;2.95;;;;;;;;;;4938508;28;20567;-69
2023/09/10 00:17:52;;;;;;;8.25;2.63;;;;;;;;;;4948444;28;20478;-69
2023/09/10 00:20:18;;;;;;;7.38;2.75;;;;;;;;;;4943794;28;20035;-69
2023/09/10 00:22:44;;;;;;;7.40;2.75;;;;;;;;;;4943313;28;20106;-69
2023/09/10 00:25:10;;;;;;;8.23;3.10;;;;;;;;;;4947092;28;20038;-70
2023/09/10 00:27:37;;;;;;;7.60;2.70;;;;;;;;;;4942688;28;20043;-70
2023/09/10 00:30:03;;;;;;;5.88;2.45;;;;;;;;;;4942908;28;20055;-70
2023/09/10 00:32:29;;;;;;;7.13;2.70;;;;;;;;;;4942306;28;21366;-70
2023/09/10 00:34:55;;;;;;;8.15;2.80;;;;;;;;;;4948963;28;20034;-70
2023/09/10 00:37:22;;;;;;;8.43;2.90;;;;;;;;;;4945370;28;20041;-70
2023/09/10 00:39:48;;;;;;;7.45;2.78;;;;;;;;;;4946232;28;20023;-70
2023/09/10 00:42:14;;;;;;;6.10;2.47;;;;;;;;;;4943576;28;20417;-69
2023/09/10 00:44:41;;;;;;;6.40;2.50;;;;;;;;;;4943553;28;20330;-70
2023/09/10 00:47:09;;;;;;;7.30;2.80;;;;;;;;;;4953247;28;20145;-70
2023/09/10 00:49:36;;;;;;;6.38;2.42;;;;;;;;;;4944646;28;20042;-69
2023/09/10 00:52:03;;;;;;;8.10;3.10;;;;;;;;;;4946593;28;20441;-71
2023/09/10 00:54:32;;;;;;;7.55;2.60;;;;;;;;;;4946368;28;20034;-70
2023/09/10 00:57:02;;;;;;;6.03;2.22;;;;;;;;;;4948213;28;20038;-70
2023/09/10 00:59:29;;;;;;;6.30;2.47;;;;;;;;;;4944241;28;20077;-70
2023/09/10 01:01:55;;;;;;;6.60;2.47;;;;;;;;;;4951219;28;20567;-70
2023/09/10 01:04:22;;;;;;;6.90;2.50;;;;;;;;;;4942798;28;20568;-70
2023/09/10 01:06:49;;;;;;;6.15;2.50;;;;;;;;;;4951167;28;20102;-70
2023/09/10 01:09:15;;;;;;;7.60;2.60;;;;;;;;;;4950723;28;20250;-69
2023/09/10 01:12:00;;;;;;;7.20;2.92;;;;;;;;;;4952904;28;20539;-70
2023/09/10 01:14:33;;;;;;;7.72;2.97;;;;;;;;;;4943147;28;20361;-69
2023/09/10 01:17:03;;;;;;;9.52;2.58;;;;;;;;;;4947918;28;20127;-70
2023/09/10 01:19:32;;;;;;;7.05;2.72;;;;;;;;;;4945286;28;20441;-69
2023/09/10 01:22:04;;;;;;;6.97;2.80;;;;;;;;;;4948338;28;20034;-70
2023/09/10 01:24:42;;;;;;;7.43;2.65;;;;;;;;;;4941787;28;21800;-69
2023/09/10 01:27:08;;;;;;;8.63;2.85;;;;;;;;;;4947058;28;20053;-69
2023/09/10 01:29:34;;;;;;;8.50;2.58;;;;;;;;;;4942249;28;20465;-69
2023/09/10 01:32:01;;;;;;;7.57;2.70;;;;;;;;;;4942073;28;20043;-70
2023/09/10 01:34:30;;;;;;;6.65;2.60;;;;;;;;;;4948403;28;20041;-69
2023/09/10 01:37:00;;;;;;;5.45;2.25;;;;;;;;;;4947452;28;20432;-69
2023/09/10 01:39:37;;;;;;;7.43;2.45;;;;;;;;;;4944594;28;20030;-69
2023/09/10 01:42:06;;;;;;;6.63;2.40;;;;;;;;;;4947625;28;20112;-69
2023/09/10 01:44:35;;;;;;;5.45;2.40;;;;;;;;;;4942427;28;20046;-69
2023/09/10 01:47:01;;;;;;;7.75;2.72;;;;;;;;;;4947282;28;20655;-69
2023/09/10 01:49:28;;;;;;;5.88;2.25;;;;;;;;;;4945297;28;20027;-69
2023/09/10 01:51:54;;;;;;;7.95;2.72;;;;;;;;;;4951231;28;20035;-69
2023/09/10 01:54:20;;;;;;;6.25;2.30;;;;;;;;;;4950286;28;20069;-69
2023/09/10 01:56:46;;;;;;;7.90;2.78;;;;;;;;;;4948778;28;20334;-69
2023/09/10 01:59:12;;;;;;;7.97;2.88;;;;;;;;;;4944917;28;20974;-69
2023/09/10 02:01:38;;;;;;;6.80;2.40;;;;;;;;;;4943995;28;20239;-69
2023/09/10 02:04:05;;;;;;;6.65;2.60;;;;;;;;;;4945883;28;20039;-69
2023/09/10 02:06:31;;;;;;;6.88;2.50;;;;;;;;;;4944524;28;20071;-69
2023/09/10 02:08:57;;;;;;;6.53;2.60;;;;;;;;;;4951085;28;20034;-69
2023/09/10 02:11:23;;;;;;;6.13;2.42;;;;;;;;;;4952366;28;21097;-69
2023/09/10 02:13:49;;;;;;;6.95;2.40;;;;;;;;;;4947603;28;20486;-69
2023/09/10 02:16:15;;;;;;;7.00;2.58;;;;;;;;;;4946547;28;20095;-69
2023/09/10 02:18:42;;;;;;;7.78;2.40;;;;;;;;;;4945635;28;20026;-69
2023/09/10 02:21:11;;;;;;;7.00;2.60;;;;;;;;;;4945446;28;20589;-69
2023/09/10 02:23:38;;;;;;;8.73;2.60;;;;;;;;;;4945053;28;20292;-69
2023/09/10 02:26:04;;;;;;;6.55;2.55;;;;;;;;;;4947096;28;20453;-69
2023/09/10 02:28:32;;;;;;;7.43;2.67;;;;;;;;;;4946265;28;20049;-69
2023/09/10 02:31:04;;;;;;;6.15;2.40;;;;;;;;;;4951661;28;20383;-71
2023/09/10 02:33:30;;;;;;;7.43;2.38;;;;;;;;;;4945964;28;20450;-71
2023/09/10 02:35:56;;;;;;;5.85;2.33;;;;;;;;;;4945856;28;20041;-69
2023/09/10 02:38:24;;;;;;;7.65;2.35;;;;;;;;;;4948578;28;20023;-69
2023/09/10 02:40:50;;;;;;;6.75;2.50;;;;;;;;;;4950729;28;20395;-69
2023/09/10 02:43:16;;;;;;;7.35;2.70;;;;;;;;;;4947236;28;20105;-71
2023/09/10 02:45:42;;;;;;;5.43;2.15;;;;;;;;;;4950858;28;20049;-71
2023/09/10 02:48:08;;;;;;;6.18;2.10;;;;;;;;;;4943580;28;20238;-71
2023/09/10 02:50:34;;;;;;;5.32;2.10;;;;;;;;;;4941239;28;20038;-69
2023/09/10 02:53:01;;;;;;;6.60;2.25;;;;;;;;;;4944895;28;20047;-69
2023/09/10 02:55:27;;;;;;;6.35;2.33;;;;;;;;;;4938629;28;20158;-71
2023/09/10 02:57:53;;;;;;;5.55;2.15;;;;;;;;;;4946883;28;20038;-69
2023/09/10 03:00:25;;;;;;;6.22;2.28;;;;;;;;;;4936141;28;20031;-71
2023/09/10 03:02:57;;;;;;;5.65;2.17;;;;;;;;;;4942849;28;20225;-70
2023/09/10 03:05:23;;;;;;;6.68;2.35;;;;;;;;;;4942866;28;20023;-70
2023/09/10 03:07:53;;;;;;;7.55;2.10;;;;;;;;;;4944588;28;20031;-70
2023/09/10 03:10:20;;;;;;;6.40;2.22;;;;;;;;;;4940415;28;20030;-70
2023/09/10 03:12:46;;;;;;;6.10;2.20;;;;;;;;;;4945717;28;20476;-69
2023/09/10 03:15:13;;;;;;;6.15;2.00;;;;;;;;;;4938896;28;20549;-69
2023/09/10 03:17:39;;;;;;;6.40;2.13;;;;;;;;;;4944240;28;20523;-69
2023/09/10 03:20:09;;;;;;;5.82;2.08;;;;;;;;;;4940679;28;20036;-69
2023/09/10 03:22:36;;;;;;;5.97;2.22;;;;;;;;;;4949241;28;20047;-69
2023/09/10 03:25:02;;;;;;;5.35;2.28;;;;;;;;;;4949730;28;20418;-69
2023/09/10 03:27:28;;;;;;;5.28;2.13;;;;;;;;;;4948171;28;20034;-69
2023/09/10 03:29:54;;;;;;;7.43;2.42;;;;;;;;;;4945216;28;20039;-69
2023/09/10 03:32:20;;;;;;;5.38;1.90;;;;;;;;;;4943013;28;20056;-69
2023/09/10 03:34:46;;;;;;;5.32;2.00;;;;;;;;;;4942544;28;20085;-72
2023/09/10 03:37:13;;;;;;;6.03;2.17;;;;;;;;;;4936413;28;20642;-69
2023/09/10 03:39:39;;;;;;;5.82;2.30;;;;;;;;;;4944386;28;20023;-69
2023/09/10 03:42:05;;;;;;;8.45;2.40;;;;;;;;;;4943207;28;20055;-69
2023/09/10 03:44:31;;;;;;;6.25;2.35;;;;;;;;;;4942858;28;20065;-69
2023/09/10 03:46:57;;;;;;;7.18;2.45;;;;;;;;;;4941669;28;20596;-70
2023/09/10 03:49:23;;;;;;;5.28;2.00;;;;;;;;;;4939137;28;20102;-69
2023/09/10 03:51:49;;;;;;;5.93;2.10;;;;;;;;;;4944486;28;20101;-70
2023/09/10 03:54:16;;;;;;;5.22;2.08;;;;;;;;;;4948837;28;20059;-69
2023/09/10 03:56:43;;;;;;;5.72;2.03;;;;;;;;;;4945500;28;20151;-70
2023/09/10 03:59:10;;;;;;;6.70;2.20;;;;;;;;;;4945384;28;20165;-69
2023/09/10 04:01:36;;;;;;;6.40;1.98;;;;;;;;;;4943510;28;20553;-69
2023/09/10 04:04:03;;;;;;;6.60;2.40;;;;;;;;;;4944887;28;20477;-69
2023/09/10 04:06:30;;;;;;;5.82;2.15;;;;;;;;;;4938174;28;21033;-70
2023/09/10 04:08:56;;;;;;;6.65;2.78;;;;;;;;;;4942794;28;20061;-69
2023/09/10 04:11:22;;;;;;;5.97;2.30;;;;;;;;;;4947073;28;20034;-70
2023/09/10 04:13:48;;;;;;;5.80;2.25;;;;;;;;;;4945295;28;20472;-69
2023/09/10 04:16:14;;;;;;;7.43;2.30;;;;;;;;;;4940014;28;20272;-69
2023/09/10 04:18:41;;;;;;;5.20;2.13;;;;;;;;;;4941914;28;20561;-69
2023/09/10 04:21:07;;;;;;;4.82;2.00;;;;;;;;;;4944651;28;20551;-70
2023/09/10 04:23:33;;;;;;;6.05;2.33;;;;;;;;;;4945826;28;20679;-69
2023/09/10 04:25:59;;;;;;;7.30;2.30;;;;;;;;;;4942684;28;20106;-70
2023/09/10 04:28:25;;;;;;;7.88;2.20;;;;;;;;;;4943835;28;20038;-70
2023/09/10 04:30:51;;;;;;;6.43;2.28;;;;;;;;;;4946644;28;20265;-69
2023/09/10 04:33:18;;;;;;;7.47;2.38;;;;;;;;;;4942159;28;20035;-69
2023/09/10 04:35:48;;;;;;;6.68;2.47;;;;;;;;;;4947160;28;20034;-69
2023/09/10 04:38:14;;;;;;;6.03;2.22;;;;;;;;;;4940672;28;20031;-69
2023/09/10 04:40:41;;;;;;;7.35;2.30;;;;;;;;;;4949153;28;20124;-70
2023/09/10 04:43:07;;;;;;;5.45;2.05;;;;;;;;;;4949856;28;20062;-69
2023/09/10 04:45:34;;;;;;;5.93;2.03;;;;;;;;;;4946481;28;20030;-70
2023/09/10 04:48:02;;;;;;;4.85;1.90;;;;;;;;;;4943170;28;20037;-69
2023/09/10 04:50:28;;;;;;;6.03;2.20;;;;;;;;;;4941627;28;20244;-69
2023/09/10 04:52:54;;;;;;;4.78;1.83;;;;;;;;;;4944267;28;20069;-69
2023/09/10 04:55:21;;;;;;;4.55;1.80;;;;;;;;;;4947701;28;20035;-69
2023/09/10 04:57:48;;;;;;;6.38;2.10;;;;;;;;;;4948149;28;20874;-69
2023/09/10 05:00:14;;;;;;;5.90;2.00;;;;;;;;;;4948056;28;20473;-70
2023/09/10 05:02:40;;;;;;;6.03;2.03;;;;;;;;;;4947761;28;20219;-69
2023/09/10 05:05:06;;;;;;;6.35;2.30;;;;;;;;;;4949610;28;20229;-69
2023/09/10 05:07:33;;;;;;;5.70;2.05;;;;;;;;;;4943037;28;20039;-69
2023/09/10 05:09:59;;;;;;;5.65;1.90;;;;;;;;;;4950993;28;20038;-69
2023/09/10 05:12:25;;;;;;;7.40;2.10;;;;;;;;;;4946260;28;20058;-68
2023/09/10 05:14:51;;;;;;;5.65;1.83;;;;;;;;;;4952071;28;20405;-69
2023/09/10 05:17:17;;;;;;;6.13;2.28;;;;;;;;;;4945213;28;20023;-69
2023/09/10 05:19:44;;;;;;;6.43;2.17;;;;;;;;;;4950421;28;20168;-69
2023/09/10 05:22:10;;;;;;;5.82;2.17;;;;;;;;;;4946310;28;20491;-69
2023/09/10 05:24:37;;;;;;;7.30;2.50;;;;;;;;;;4949109;28;20065;-69
2023/09/10 05:27:03;;;;;;;7.70;2.67;;;;;;;;;;4943863;28;20034;-69
2023/09/10 05:29:29;;;;;;;7.18;2.47;;;;;;;;;;4943185;28;20030;-69
2023/09/10 05:31:55;;;;;;;6.68;2.45;;;;;;;;;;4943330;28;20289;-69
2023/09/10 05:34:21;;;;;;;7.72;2.70;;;;;;;;;;4941930;28;20559;-69
2023/09/10 05:36:48;;;;;;;8.88;2.78;;;;;;;;;;4941896;28;20094;-69
2023/09/10 05:39:14;;;;;;;9.25;2.53;;;;;;;;;;4942758;28;20027;-69
2023/09/10 05:41:40;;;;;;;8.68;2.10;;;;;;;;;;4946001;28;20035;-69
2023/09/10 05:44:07;;;;;;;6.90;2.20;;;;;;;;;;4951650;28;20066;-69
2023/09/10 05:46:33;;;;;;;6.00;1.98;;;;;;;;;;4938487;28;20038;-69
2023/09/10 05:48:59;;;;;;;5.43;1.85;;;;;;;;;;4948884;28;20030;-69
2023/09/10 05:51:25;;;;;;;5.47;2.05;;;;;;;;;;4945340;28;20405;-69
2023/09/10 05:53:51;;;;;;;6.45;2.05;;;;;;;;;;4947330;28;20508;-69
2023/09/10 05:56:17;;;;;;;5.43;2.00;;;;;;;;;;4948262;28;20480;-69
2023/09/10 05:58:43;;;;;;;5.70;1.98;;;;;;;;;;4945922;28;20200;-69
2023/09/10 06:01:10;;;;;;;5.68;2.05;;;;;;;;;;4949548;28;20019;-69
2023/09/10 06:03:36;;;;;;;6.25;1.77;;;;;;;;;;4947469;28;20132;-69
2023/09/10 06:06:02;;;;;;;5.15;1.83;;;;;;;;;;4941649;28;20054;-69
2023/09/10 06:08:31;;;;;;;5.00;1.88;;;;;;;;;;4939906;28;20524;-69
2023/09/10 06:10:57;;;;;;;5.50;1.70;;;;;;;;;;4945670;28;20061;-70
2023/09/10 06:13:24;;;;;;;5.30;1.70;;;;;;;;;;4942169;28;20216;-70
2023/09/10 06:15:50;;;;;;;6.80;1.77;;;;;;;;;;4945198;28;20053;-70
2023/09/10 06:18:16;;;;;;;5.57;1.88;;;;;;;;;;4942069;28;20870;-70
2023/09/10 06:20:42;;;;;;;4.97;2.03;;;;;;;;;;4946669;28;20251;-70
2023/09/10 06:23:08;;;;;;;4.97;1.98;;;;;;;;;;4945096;28;20603;-70
2023/09/10 06:25:34;;;;;;;4.63;1.70;;;;;;;;;;4943964;28;20384;-70
2023/09/10 06:28:01;;;;;;;8.52;3.33;;;;;;;;;;4948649;28;20164;-70
2023/09/10 06:30:27;;;;;;;7.82;3.67;;;;;;;;;;4944202;28;20107;-70
2023/09/10 06:32:53;;;;;;;8.43;3.90;;;;;;;;;;4944055;28;20145;-70
2023/09/10 06:35:19;;;;;;;7.32;2.97;;;;;;;;;;4937922;28;20035;-70
2023/09/10 06:37:47;;;;;;;6.70;2.60;;;;;;;;;;4943139;28;20031;-71
2023/09/10 06:40:14;;;;;;;5.47;2.17;;;;;;;;;;4940394;28;20261;-71
2023/09/10 06:42:41;;;;;;;6.50;2.00;;;;;;;;;;4943271;28;20409;-71
2023/09/10 06:45:07;;;;;;;7.32;1.95;;;;;;;;;;4945831;28;20035;-71
2023/09/10 06:47:33;;;;;;;5.07;1.70;;;;;;;;;;4941826;28;20081;-71
2023/09/10 06:49:59;;;;;;;5.50;2.10;;;;;;;;;;4945176;28;20544;-71
2023/09/10 06:52:25;;;;;;;5.68;1.73;;;;;;;;;;4939054;28;20113;-71
2023/09/10 06:54:51;;;;;;;6.18;2.10;;;;;;;;;;4942792;28;20037;-71
2023/09/10 06:57:18;;;;;;;4.70;1.70;;;;;;;;;;4942099;28;20027;-69
2023/09/10 06:59:44;;;;;;;4.55;1.70;;;;;;;;;;4946366;28;20031;-71
2023/09/10 07:02:10;;;;;;;4.72;1.60;;;;;;;;;;4940056;28;20031;-71
2023/09/10 07:04:36;;;;;;;5.68;1.98;;;;;;;;;;4941401;28;20031;-71
2023/09/10 07:07:03;;;;;;;4.55;1.60;;;;;;;;;;4945133;28;20539;-71
2023/09/10 07:09:29;;;;;;;4.95;1.70;;;;;;;;;;4940493;28;20174;-71
2023/09/10 07:11:55;;;;;;;5.45;1.48;;;;;;;;;;4945265;28;20788;-71
2023/09/10 07:14:21;;;;;;;4.80;1.70;;;;;;;;;;4943346;28;20061;-71
2023/09/10 07:16:48;;;;;;;4.85;1.67;;;;;;;;;;4945006;28;20019;-71
2023/09/10 07:19:14;;;;;;;4.25;1.67;;;;;;;;;;4942663;28;20054;-71
2023/09/10 07:21:41;;;;;;;5.43;1.70;;;;;;;;;;4942842;28;20019;-70
2023/09/10 07:24:09;;;;;;;5.43;1.70;;;;;;;;;;4942991;28;20560;-70
2023/09/10 07:26:38;;;;;;;5.53;1.70;;;;;;;;;;4942484;28;20027;-70
2023/09/10 07:29:05;;;;;;;5.28;1.88;;;;;;;;;;4945257;28;20042;-71
2023/09/10 07:31:31;;;;;;;8.48;2.50;;;;;;;;;;4941132;28;20035;-70
2023/09/10 07:33:58;;;;;;;3.97;1.75;;;;;;;;;;4939101;28;20477;-70
2023/09/10 07:36:24;;;;;;;4.90;1.95;;;;;;;;;;4943841;28;20033;-69
2023/09/10 07:38:50;;;;;;;7.72;2.03;;;;;;;;;;4946056;28;20039;-69
2023/09/10 07:41:16;;;;;;;6.13;1.92;;;;;;;;;;4941784;28;20413;-69
2023/09/10 07:43:42;;;;;;;7.07;1.90;;;;;;;;;;4940826;28;20043;-70
2023/09/10 07:46:08;;;;;;;5.72;2.10;;;;;;;;;;4939087;28;20089;-70
2023/09/10 07:48:35;;;;;;;6.22;2.13;;;;;;;;;;4929409;28;20046;-70
2023/09/10 07:51:02;;;;;;;6.13;2.05;;;;;;;;;;4933329;28;20043;-69
2023/09/10 07:53:29;;;;;;;5.88;2.03;;;;;;;;;;4929353;28;20031;-70
2023/09/10 07:55:55;;;;;;;6.10;2.00;;;;;;;;;;4931783;28;20031;-70
2023/09/10 07:58:21;;;;;;;5.90;1.83;;;;;;;;;;4934665;28;20393;-70
2023/09/10 08:00:47;;;;;;;3.90;1.75;;;;;;;;;;4935008;28;20042;-71
2023/09/10 08:03:14;;;;;;;5.25;1.90;;;;;;;;;;4932179;28;20111;-71
2023/09/10 08:05:41;;;;;;;5.32;1.95;;;;;;;;;;4932516;28;20058;-71
2023/09/10 08:08:07;;;;;;;5.63;1.85;;;;;;;;;;4930561;28;20837;-69
2023/09/10 08:10:34;;;;;;;5.32;1.77;;;;;;;;;;4927651;28;20035;-70
2023/09/10 08:13:00;;;;;;;6.10;1.98;;;;;;;;;;4933433;28;20323;-69
2023/09/10 08:15:27;;;;;;;5.75;2.03;;;;;;;;;;4931432;28;20423;-70
2023/09/10 08:17:55;;;;;;;5.00;1.80;;;;;;;;;;4932866;28;20043;-69
2023/09/10 08:20:21;;;;;;;7.80;2.17;;;;;;;;;;4933285;28;20253;-70
2023/09/10 08:22:47;;;;;;;7.25;2.78;;;;;;;;;;4934646;28;20119;-69
2023/09/10 08:25:14;;;;;;;6.60;2.35;;;;;;;;;;4929885;28;20890;-70
2023/09/10 08:27:40;;;;;;;6.10;2.40;;;;;;;;;;4933129;28;20453;-69
2023/09/10 08:30:07;;;;;;;6.63;2.60;;;;;;;;;;4932562;28;20118;-69
2023/09/10 08:32:37;;;;;;;6.65;2.65;;;;;;;;;;4928361;28;20252;-71
2023/09/10 08:35:04;;;;;;;7.05;3.35;;;;;;;;;;4934949;28;20038;-72
2023/09/10 08:37:30;;;;;;;7.78;3.80;;;;;;;;;;4932456;28;20593;-71
2023/09/10 08:39:56;;;;;;;7.82;3.00;;;;;;;;;;4932348;28;20037;-71
2023/09/10 08:42:30;;;;;;;7.53;2.45;;;;;;;;;;4932524;28;20058;-70
2023/09/10 08:45:00;;;;;;;9.38;5.25;;;;;;;;;;4935973;28;20028;-71
2023/09/10 08:47:26;;;;;;;6.43;2.67;;;;;;;;;;4933475;28;20282;-71
2023/09/10 08:49:55;;;;;;;6.63;2.55;;;;;;;;;;4936033;28;20043;-71
2023/09/10 08:52:21;;;;;;;6.65;3.15;;;;;;;;;;4930079;28;20497;-72
2023/09/10 08:54:47;;;;;;;6.03;2.47;;;;;;;;;;4931980;28;20039;-71
2023/09/10 08:57:14;;;;;;;13.68;8.73;;;;;;;;;;4932857;28;20505;-71
2023/09/10 08:59:41;;;;;;;6.93;2.40;;;;;;;;;;4936769;28;20334;-71
2023/09/10 09:02:10;;;;;;;6.82;2.40;;;;;;;;;;4936648;28;20480;-71
2023/09/10 09:04:36;;;;;;;8.32;2.70;;;;;;;;;;4934321;28;20494;-71
2023/09/10 09:07:03;;;;;;;5.22;1.80;;;;;;;;;;4937208;28;20130;-72
2023/09/10 09:09:32;;;;;;;5.13;1.80;;;;;;;;;;4935808;28;20362;-71
2023/09/10 09:11:58;;;;;;;6.88;2.42;;;;;;;;;;4936574;28;20039;-71
2023/09/10 09:14:25;;;;;;;5.05;2.10;;;;;;;;;;4933629;28;20031;-72
2023/09/10 09:16:53;;;;;;;5.72;1.95;;;;;;;;;;4936860;28;20038;-72
2023/09/10 09:19:22;;;;;;;4.55;1.80;;;;;;;;;;4930024;28;20039;-71
2023/09/10 09:21:50;;;;;;;7.00;2.42;;;;;;;;;;4937294;28;20133;-71
2023/09/10 09:24:17;;;;;;;5.97;2.10;;;;;;;;;;4934708;28;20244;-71
2023/09/10 09:26:43;;;;;;;4.50;1.80;;;;;;;;;;4941872;28;20039;-71
2023/09/10 09:29:09;;;;;;;6.63;3.05;;;;;;;;;;4939496;28;20039;-71
2023/09/10 09:31:35;;;;;;;6.10;2.47;;;;;;;;;;4934544;28;20039;-72
2023/09/10 09:34:02;;;;;;;6.85;2.30;;;;;;;;;;4935752;28;20030;-71
2023/09/10 09:36:28;;;;;;;6.47;2.45;;;;;;;;;;4931340;28;20038;-71
2023/09/10 09:38:55;;;;;;;7.47;2.38;;;;;;;;;;4935691;28;20177;-71
2023/09/10 09:41:21;;;;;;;5.95;2.03;;;;;;;;;;4933310;28;20503;-71
2023/09/10 09:43:50;;;;;;;5.70;1.92;;;;;;;;;;4936211;28;20164;-71
2023/09/10 09:46:17;;;;;;;8.98;2.00;;;;;;;;;;4936835;28;20031;-71
2023/09/10 09:48:43;;;;;;;5.25;2.00;;;;;;;;;;4936547;28;20371;-71
2023/09/10 09:51:09;;;;;;;5.07;1.90;;;;;;;;;;4934835;28;20671;-72
2023/09/10 09:53:36;;;;;;;4.03;1.65;;;;;;;;;;4934646;28;20130;-71
2023/09/10 09:56:06;;;;;;;5.45;2.08;;;;;;;;;;4938076;28;20438;-71
2023/09/10 09:58:33;;;;;;;5.72;1.90;;;;;;;;;;4932996;28;20297;-71
2023/09/10 10:00:59;;;;;;;11.43;2.00;;;;;;;;;;4934656;28;20554;-71
2023/09/10 10:03:26;;;;;;;5.85;1.90;;;;;;;;;;4933531;28;20082;-71
2023/09/10 10:05:53;;;;;;;5.78;1.90;;;;;;;;;;4935053;28;20031;-70
2023/09/10 10:08:19;;;;;;;6.45;1.95;;;;;;;;;;4933371;28;20161;-71
2023/09/10 10:10:47;;;;;;;5.15;2.10;;;;;;;;;;4934694;28;20109;-70
2023/09/10 10:13:15;;;;;;;5.45;2.05;;;;;;;;;;4929126;28;20038;-71
2023/09/10 10:15:41;;;;;;;5.75;1.70;;;;;;;;;;4937305;28;20110;-71
2023/09/10 10:18:08;;;;;;;6.78;1.77;;;;;;;;;;4938884;28;20499;-71
2023/09/10 10:20:34;;;;;;;7.38;2.22;;;;;;;;;;4936574;28;20041;-71
2023/09/10 10:23:01;;;;;;;8.25;2.08;;;;;;;;;;4933478;28;20031;-70
2023/09/10 10:25:27;;;;;;;5.78;1.83;;;;;;;;;;4930387;28;20556;-71
2023/09/10 10:27:53;;;;;;;5.30;2.00;;;;;;;;;;4934902;28;20537;-71
2023/09/10 10:30:20;;;;;;;5.35;1.90;;;;;;;;;;4933335;28;20095;-71
2023/09/10 10:32:48;;;;;;;6.07;2.08;;;;;;;;;;4933353;28;20274;-73
2023/09/10 10:35:14;;;;;;;5.05;2.05;;;;;;;;;;4933300;28;20035;-72
2023/09/10 10:37:48;;;;;;;5.78;1.92;;;;;;;;;;4933603;28;20150;-72
2023/09/10 10:40:17;;;;;;;6.40;1.90;;;;;;;;;;4928798;28;20031;-71
2023/09/10 10:42:51;;;;;;;4.47;1.83;;;;;;;;;;4936186;28;20556;-71
2023/09/10 10:45:18;;;;;;;6.75;2.30;;;;;;;;;;4932316;28;20031;-71
2023/09/10 10:47:45;;;;;;;7.10;2.40;;;;;;;;;;4932503;28;20050;-71
2023/09/10 10:50:12;;;;;;;7.53;2.30;;;;;;;;;;4932068;28;20077;-71
2023/09/10 10:52:47;;;;;;;4.95;2.00;;;;;;;;;;4933190;28;20424;-71
2023/09/10 10:55:13;;;;;;;5.40;1.90;;;;;;;;;;4934247;28;21260;-70
2023/09/10 10:57:39;;;;;;;5.60;1.88;;;;;;;;;;4933898;28;20038;-71
2023/09/10 11:00:09;;;;;;;5.07;1.90;;;;;;;;;;4933018;28;20027;-71
2023/09/10 11:02:35;;;;;;;5.03;1.88;;;;;;;;;;4934652;28;20030;-71
2023/09/10 11:05:03;;;;;;;5.22;1.92;;;;;;;;;;4935636;28;20457;-71
2023/09/10 11:07:30;;;;;;;11.15;2.17;;;;;;;;;;4930941;28;20332;-72
2023/09/10 11:10:00;;;;;;;6.07;2.10;;;;;;;;;;4935510;28;20039;-71
2023/09/10 11:12:27;;;;;;;4.35;2.00;;;;;;;;;;4932658;28;20316;-71
2023/09/10 11:14:59;;;;;;;5.75;2.10;;;;;;;;;;4932941;28;20552;-70
2023/09/10 11:17:29;;;;;;;6.53;2.25;;;;;;;;;;4935312;28;20663;-73
2023/09/10 11:19:56;;;;;;;7.22;2.30;;;;;;;;;;4934083;28;20050;-71
2023/09/10 11:22:22;;;;;;;4.32;1.80;;;;;;;;;;4930495;28;20245;-71
2023/09/10 11:25:01;;;;;;;6.03;2.10;;;;;;;;;;4933782;28;20381;-71
2023/09/10 11:27:28;;;;;;;5.03;1.95;;;;;;;;;;4935175;28;20034;-71
2023/09/10 11:30:04;;;;;;;5.85;2.00;;;;;;;;;;4931985;28;20560;-71
2023/09/10 11:32:30;;;;;;;5.25;2.08;;;;;;;;;;4931055;28;20529;-71
2023/09/10 11:35:25;;;;;;;4.70;1.95;;;;;;;;;;4934474;28;21172;-72
2023/09/10 11:37:52;;;;;;;5.78;1.95;;;;;;;;;;4923951;28;20081;-72
2023/09/10 11:40:20;;;;;;;6.28;2.25;;;;;;;;;;4929876;28;20023;-71
2023/09/10 11:42:47;;;;;;;5.68;2.00;;;;;;;;;;4933379;28;20142;-72
2023/09/10 11:45:13;;;;;;;4.85;1.83;;;;;;;;;;4931325;28;20027;-72
2023/09/10 11:47:43;;;;;;;4.00;1.88;;;;;;;;;;4935242;28;20041;-71
2023/09/10 11:50:10;;;;;;;4.90;2.00;;;;;;;;;;4933985;28;20042;-71
2023/09/10 11:52:37;;;;;;;4.72;1.77;;;;;;;;;;4928041;28;20521;-71
2023/09/10 11:55:09;;;;;;;5.68;1.90;;;;;;;;;;4930743;28;20839;-73
2023/09/10 11:57:35;;;;;;;5.35;1.90;;;;;;;;;;4928883;28;20058;-72
2023/09/10 12:00:03;;;;;;;5.13;1.70;;;;;;;;;;4932942;28;20105;-72
2023/09/10 12:02:29;;;;;;;5.25;2.00;;;;;;;;;;4929952;28;20023;-72
2023/09/10 12:04:59;;;;;;;5.47;1.95;;;;;;;;;;4935405;28;20047;-72
2023/09/10 12:07:25;;;;;;;4.70;1.98;;;;;;;;;;4931185;28;20054;-72
2023/09/10 12:09:51;;;;;;;6.03;1.85;;;;;;;;;;4932706;28;20039;-72
2023/09/10 12:12:20;;;;;;;8.13;3.33;;;;;;;;;;4931144;28;20533;-71
2023/09/10 12:14:46;;;;;;;10.65;4.30;;;;;;;;;;4931339;28;20023;-72
2023/09/10 12:17:13;;;;;;;7.28;3.85;;;;;;;;;;4933605;28;20634;-71
2023/09/10 12:19:39;;;;;;;6.50;2.90;;;;;;;;;;4930016;28;20019;-72
2023/09/10 12:22:09;;;;;;;8.73;4.47;;;;;;;;;;4935558;28;20042;-72
2023/09/10 12:24:39;;;;;;;4.65;2.05;;;;;;;;;;4927760;28;20134;-71
2023/09/10 12:27:05;;;;;;;6.53;2.28;;;;;;;;;;4932766;28;20033;-71
2023/09/10 12:29:31;;;;;;;5.00;1.73;;;;;;;;;;4926059;28;20030;-71
2023/09/10 12:31:57;;;;;;;7.03;2.03;;;;;;;;;;4932935;28;20416;-73
2023/09/10 12:34:24;;;;;;;4.72;2.00;;;;;;;;;;4926490;28;20069;-73
2023/09/10 12:36:50;;;;;;;7.00;2.15;;;;;;;;;;4935077;28;20089;-71
2023/09/10 12:39:24;;;;;;;7.03;2.30;;;;;;;;;;4926557;28;20035;-71
2023/09/10 12:41:54;;;;;;;5.22;1.80;;;;;;;;;;4934966;28;20121;-72
2023/09/10 12:44:20;;;;;;;5.85;2.20;;;;;;;;;;4925161;28;20045;-72
2023/09/10 12:46:47;;;;;;;6.00;2.35;;;;;;;;;;4935148;28;20038;-71
2023/09/10 12:49:13;;;;;;;6.97;2.50;;;;;;;;;;4936155;28;20039;-72
2023/09/10 12:51:39;;;;;;;6.88;3.30;;;;;;;;;;4932882;28;20146;-72
2023/09/10 12:54:06;;;;;;;8.27;2.53;;;;;;;;;;4929516;28;20544;-72
2023/09/10 12:56:32;;;;;;;8.60;3.72;;;;;;;;;;4934467;28;20054;-72
2023/09/10 12:58:58;;;;;;;10.07;6.18;;;;;;;;;;4939722;28;20104;-72
2023/09/10 13:01:25;;;;;;;8.35;3.50;;;;;;;;;;4931646;28;20445;-72
2023/09/10 13:03:54;;;;;;;7.63;3.03;;;;;;;;;;4930991;28;20554;-75
2023/09/10 13:06:20;;;;;;;8.48;3.60;;;;;;;;;;4931994;28;20086;-72
2023/09/10 13:08:46;;;;;;;9.63;2.90;;;;;;;;;;4930490;28;20262;-73
2023/09/10 13:11:13;;;;;;;8.38;2.10;;;;;;;;;;4932043;28;20062;-71
2023/09/10 13:13:39;;;;;;;5.88;2.20;;;;;;;;;;4937717;28;20319;-71
2023/09/10 13:16:05;;;;;;;7.47;2.67;;;;;;;;;;4944533;28;20647;-71
2023/09/10 13:18:31;;;;;;;10.88;4.93;;;;;;;;;;4944736;28;20965;-71
2023/09/10 13:20:57;;;;;;;6.55;2.30;;;;;;;;;;4943356;28;20039;-72
2023/09/10 13:23:23;;;;;;;7.72;2.60;;;;;;;;;;4944723;28;20358;-72
2023/09/10 13:25:49;;;;;;;4.95;2.13;;;;;;;;;;4945833;28;20096;-71
2023/09/10 13:28:16;;;;;;;7.38;3.17;;;;;;;;;;4939977;28;20508;-72
2023/09/10 13:30:44;;;;;;;5.50;2.00;;;;;;;;;;4939288;28;20030;-72
2023/09/10 13:33:10;;;;;;;6.13;1.80;;;;;;;;;;4944313;28;20404;-73
2023/09/10 13:35:40;;;;;;;5.97;1.95;;;;;;;;;;4946102;28;20039;-73
2023/09/10 13:38:06;;;;;;;7.10;2.03;;;;;;;;;;4943137;28;20366;-73
2023/09/10 13:40:34;;;;;;;3.97;1.40;;;;;;;;;;4940460;28;20351;-73
2023/09/10 13:43:00;;;;;;;6.10;1.40;;;;;;;;;;4940643;28;20090;-71
2023/09/10 13:45:26;;;;;;;4.93;1.50;;;;;;;;;;4944582;28;20492;-72
2023/09/10 13:47:52;;;;;;;4.53;1.58;;;;;;;;;;4943937;28;20338;-72
2023/09/10 13:50:18;;;;;;;6.35;2.10;;;;;;;;;;4937571;28;20699;-73
2023/09/10 13:52:44;;;;;;;5.63;2.00;;;;;;;;;;4940842;28;20122;-72
2023/09/10 13:55:11;;;;;;;6.30;2.10;;;;;;;;;;4937838;28;20097;-72
2023/09/10 13:57:38;;;;;;;5.43;1.90;;;;;;;;;;4939494;28;20038;-71
2023/09/10 14:00:08;;;;;;;4.25;1.65;;;;;;;;;;4941388;28;20074;-71
2023/09/10 14:02:35;;;;;;;5.50;1.77;;;;;;;;;;4936030;28;20732;-73
2023/09/10 14:05:02;;;;;;;5.85;1.75;;;;;;;;;;4941111;28;20545;-74
2023/09/10 14:07:28;;;;;;;5.78;1.80;;;;;;;;;;4941921;28;20058;-73
2023/09/10 14:09:54;;;;;;;6.72;1.77;;;;;;;;;;4942813;28;20492;-73
2023/09/10 14:12:21;;;;;;;4.07;1.50;;;;;;;;;;4938522;28;20078;-73
2023/09/10 14:14:47;;;;;;;4.40;1.58;;;;;;;;;;4940210;28;20146;-72
2023/09/10 14:17:13;;;;;;;3.63;1.33;;;;;;;;;;4938395;28;20152;-73
2023/09/10 14:19:39;;;;;;;5.45;1.65;;;;;;;;;;4945337;28;20159;-73
2023/09/10 14:22:05;;;;;;;3.63;1.50;;;;;;;;;;4942933;28;20527;-73
2023/09/10 14:24:32;;;;;;;5.18;1.58;;;;;;;;;;4938222;28;21603;-73
2023/09/10 14:26:59;;;;;;;5.75;1.70;;;;;;;;;;4936897;28;20042;-72
2023/09/10 14:29:25;;;;;;;4.18;1.50;;;;;;;;;;4932221;28;20037;-72
2023/09/10 14:31:55;;;;;;;4.05;1.45;;;;;;;;;;4935964;28;20042;-72
2023/09/10 14:34:21;;;;;;;4.35;1.80;;;;;;;;;;4936774;28;20041;-72
2023/09/10 14:36:47;;;;;;;5.22;1.55;;;;;;;;;;4941829;28;20549;-72
2023/09/10 14:39:14;;;;;;;4.57;1.50;;;;;;;;;;4941605;28;20497;-72
2023/09/10 14:41:41;;;;;;;4.35;1.80;;;;;;;;;;4939728;28;20031;-73